Shelburne Falls, Massachusetts
Current Conditions -  °F | °C
As of 2:52 PM on Wednesday 17 Dec 2014 (Local Time) from KORE Reporting Station
Overcast Overcast  
Wind Chill: 39°   Ceiling: 2300
Heat Index: 44°   Visibility: 10mi
Dew Point: 39°   Wind: 9mph
Humidity: 82%   Direction: 290°WNW
Pressure: 29.73"   Gusts: NA
Location:  42.6°N, 72.74°W
Report Text: KORE 171952Z AUTO 29008KT 10SM OVC023 07/04 A2973 RMK AO2 SLP072 T00670039
Loading
Personal Weather Stations






























Interactive Weather Map New forecast layout! Learn more

10-Day Weather Forecast

Advertisements
Track Severe Weather on mobile